Thunder radar more information blitzortung!


Radar de pluja more information rain snow radar


Visita la nostra xarxa de llocs de meteo:

Template documentation
and downloads

And another site



No particular awareness of the weather is required.    There are no Weather-warnings

Pagina Historial Weather Underground text

Diari Resum Novembre 6, 2017 Unitats:  Imperial    Mètric   Tant
« Previous Dia
SegĂźent Dia »
Diari Setmana Mensual Anual Personalitzada
  Maxima: Minima: Media:
Temperatura: TemperatureC °F 3.6 °F 10.9 °F
Punt de rosada: DewpointC °F -10.8 °F -5.6 °F
Humitat: Humidity % 22 % 32 %
Wind Speed: WindSpeedKMH mph 0.0 mph 6.8 mph
RĂ fegues de vent: WindSpeedGustKMH mph - -
Vent:- - WSW
Pression baro: PressurehPa in 1013.8 in -
Precipitacions: 0.0 in    
Historical Graphs
 
 
Dades de taula per Novembre 6, 2017
Temps Temperatura Punt de rosada Pression baro Vent Wind Speed RĂ fegues de vent Humitat Rainfall Rate (Hourly)
TemperatureC °F DewpointC °F PressurehPa in Calm     Humidity % HourlyPrecipMM in
00:00 7.5 °F 0.7 °F 1016.8 in West 4.8 mph 8.0 mph 62 % 0.0 in
00:03 9.8 °F 1.9 °F 1016.8 in WSW 9.3 mph 9.3 mph 58 % 0.0 in
00:10 7.6 °F 0.6 °F 1016.8 in WSW 4.8 mph 6.4 mph 61 % 0.0 in
00:20 7.5 °F 0.4 °F 1016.8 in WSW 4.8 mph 6.4 mph 61 % 0.0 in
00:30 7.4 °F 0.1 °F 1016.8 in West 4.8 mph 9.7 mph 60 % 0.0 in
00:40 7.4 °F 0.1 °F 1017.8 in West 4.8 mph 4.8 mph 60 % 0.0 in
00:50 7.2 °F -0.3 °F 1017.8 in WSW 4.8 mph 6.4 mph 59 % 0.0 in
01:00 7.0 °F -0.2 °F 1016.8 in WSW 8.0 mph 8.0 mph 60 % 0.0 in
01:10 6.9 °F -0.3 °F 1017.8 in WSW 4.8 mph 9.7 mph 60 % 0.0 in
01:20 7.1 °F -0.4 °F 1017.8 in West 3.2 mph 6.4 mph 59 % 0.0 in
01:30 7.2 °F -0.5 °F 1017.8 in West 4.8 mph 8.0 mph 58 % 0.0 in
01:40 7.3 °F -0.7 °F 1017.8 in WSW 4.8 mph 8.0 mph 57 % 0.0 in
01:50 7.4 °F -0.6 °F 1017.8 in WSW 1.6 mph 4.8 mph 57 % 0.0 in
02:00 7.6 °F -0.6 °F 1017.8 in WSW 3.2 mph 6.4 mph 56 % 0.0 in
02:10 7.8 °F -0.7 °F 1017.8 in WSW 1.6 mph 4.8 mph 55 % 0.0 in
02:20 8.1 °F -0.4 °F 1017.8 in WSW 4.8 mph 6.4 mph 55 % 0.0 in
02:30 8.5 °F -0.3 °F 1017.8 in WSW 9.7 mph 9.7 mph 54 % 0.0 in
02:45 9.0 °F -0.3 °F 1017.8 in WSW 3.2 mph 8.0 mph 52 % 0.0 in
02:55 9.4 °F 0.0 °F 1017.8 in SW 3.2 mph 4.8 mph 52 % 0.0 in
03:05 9.9 °F 0.5 °F 1017.8 in SW 4.8 mph 6.4 mph 52 % 0.0 in
03:15 10.2 °F 0.8 °F 1017.8 in SW 3.2 mph 4.8 mph 52 % 0.0 in
03:25 10.6 °F 0.9 °F 1017.8 in SW 4.8 mph 8.0 mph 51 % 0.0 in
03:35 10.8 °F 0.8 °F 1017.8 in SW 9.7 mph 11.3 mph 50 % 0.0 in
03:45 11.1 °F 0.8 °F 1017.8 in WSW 11.3 mph 11.3 mph 49 % 0.0 in
03:55 11.3 °F 0.7 °F 1017.8 in WSW 3.2 mph 12.9 mph 48 % 0.0 in
04:05 11.6 °F 0.9 °F 1017.8 in WSW 4.8 mph 8.0 mph 48 % 0.0 in
04:15 12.1 °F 1.1 °F 1017.8 in WSW 4.8 mph 6.4 mph 47 % 0.0 in
04:25 12.2 °F 1.2 °F 1017.8 in SW 8.0 mph 9.7 mph 47 % 0.0 in
04:35 12.9 °F 1.6 °F 1017.8 in WSW 3.2 mph 9.7 mph 46 % 0.0 in
10:38 13.0 °F 1.3 °F 1017.8 in NW 3.7 mph 3.9 mph 45 % 0.0 in
10:39 13.0 °F 1.3 °F 1017.8 in West 9.3 mph 9.3 mph 45 % 0.0 in
10:44 13.1 °F 1.7 °F 1017.8 in West 9.3 mph 9.3 mph 46 % 0.0 in
10:49 13.2 °F 1.8 °F 1017.8 in SW 9.3 mph 9.3 mph 46 % 0.0 in
10:54 13.3 °F 1.6 °F 1017.8 in WNW 7.4 mph 7.4 mph 45 % 0.0 in
10:59 13.2 °F 1.2 °F 1017.8 in NNW 9.0 mph 9.0 mph 44 % 0.0 in
11:05 13.5 °F 1.4 °F 1017.8 in SW 6.4 mph 6.4 mph 44 % 0.0 in
11:10 13.5 °F 1.8 °F 1017.8 in West 7.4 mph 7.4 mph 45 % 0.0 in
11:15 13.5 °F 1.4 °F 1017.8 in West 9.3 mph 9.5 mph 44 % 0.0 in
11:20 13.7 °F 1.7 °F 1017.8 in West 7.4 mph 7.4 mph 44 % 0.0 in
11:25 13.9 °F 1.5 °F 1016.8 in SW 5.6 mph 5.6 mph 43 % 0.0 in
11:30 13.9 °F 1.8 °F 1016.8 in SW 9.5 mph 9.5 mph 44 % 0.0 in
11:35 14.1 °F 1.7 °F 1016.8 in WNW 9.3 mph 9.3 mph 43 % 0.0 in
11:40 14.2 °F 1.8 °F 1017.8 in WSW 7.9 mph 7.9 mph 43 % 0.0 in
11:45 14.2 °F 1.4 °F 1017.8 in WSW 14.8 mph 14.8 mph 42 % 0.0 in
11:46 14.3 °F 1.6 °F 1017.8 in West 9.3 mph 9.3 mph 42 % 0.0 in
11:51 14.5 °F 1.7 °F 1016.8 in NW 11.1 mph 11.1 mph 42 % 0.0 in
11:56 14.3 °F 1.6 °F 1016.8 in West 7.9 mph 7.9 mph 42 % 0.0 in
12:01 14.8 °F 1.7 °F 1016.8 in WSW 5.6 mph 5.6 mph 41 % 0.0 in
12:06 15.0 °F 1.5 °F 1015.8 in West 9.3 mph 9.3 mph 40 % 0.0 in
12:11 15.0 °F 1.5 °F 1015.8 in WNW 13.0 mph 13.0 mph 40 % 0.0 in
12:16 15.2 °F 0.9 °F 1015.8 in ENE 7.4 mph 7.4 mph 38 % 0.0 in
12:21 15.2 °F 0.6 °F 1015.8 in West 9.3 mph 9.3 mph 37 % 0.0 in
12:26 15.5 °F 0.5 °F 1015.8 in WNW 7.4 mph 7.4 mph 36 % 0.0 in
12:31 15.8 °F 0.7 °F 1015.8 in WNW 9.5 mph 9.5 mph 36 % 0.0 in
12:36 15.5 °F 0.5 °F 1015.8 in WNW 9.3 mph 9.3 mph 36 % 0.0 in
12:41 15.4 °F -0.4 °F 1015.8 in SE 5.8 mph 5.8 mph 34 % 0.0 in
12:46 15.4 °F -0.4 °F 1015.8 in NNW 9.3 mph 9.3 mph 34 % 0.0 in
12:51 15.5 °F -0.3 °F 1015.8 in SW 13.0 mph 13.0 mph 34 % 0.0 in
12:56 15.7 °F -0.1 °F 1015.8 in NW 7.4 mph 7.4 mph 34 % 0.0 in
13:01 15.5 °F -0.7 °F 1015.8 in NW 9.3 mph 9.3 mph 33 % 0.0 in
13:06 15.7 °F -0.6 °F 1014.8 in SSW 9.3 mph 9.3 mph 33 % 0.0 in
13:11 15.8 °F -0.4 °F 1014.8 in West 14.8 mph 14.8 mph 33 % 0.0 in
13:16 15.6 °F -1.1 °F 1014.8 in NNE 13.0 mph 13.0 mph 32 % 0.0 in
13:21 15.6 °F -1.5 °F 1015.8 in NW 9.3 mph 9.3 mph 31 % 0.0 in
13:26 15.6 °F -1.5 °F 1015.8 in NW 14.8 mph 14.8 mph 31 % 0.0 in
13:31 15.6 °F -1.1 °F 1015.8 in NW 9.3 mph 9.3 mph 32 % 0.0 in
13:36 15.4 °F -2.1 °F 1015.8 in SW 20.4 mph 20.4 mph 30 % 0.0 in
13:41 15.4 °F -1.7 °F 1015.8 in WNW 5.6 mph 5.6 mph 31 % 0.0 in
13:46 15.4 °F -2.1 °F 1015.8 in NW 14.8 mph 14.8 mph 30 % 0.0 in
13:51 15.4 °F -1.7 °F 1015.8 in NW 9.5 mph 9.5 mph 31 % 0.0 in
13:56 15.4 °F -2.1 °F 1015.8 in WNW 13.0 mph 13.0 mph 30 % 0.0 in
14:01 15.5 °F -2.0 °F 1015.8 in WSW 7.4 mph 7.4 mph 30 % 0.0 in
14:06 15.6 °F -1.5 °F 1015.8 in NW 7.9 mph 7.9 mph 31 % 0.0 in
14:11 15.5 °F -2.0 °F 1015.8 in NNW 9.3 mph 9.3 mph 30 % 0.0 in
14:16 15.6 °F -1.9 °F 1015.8 in NW 11.4 mph 11.4 mph 30 % 0.0 in
14:21 15.7 °F -1.8 °F 1015.8 in WNW 7.4 mph 7.4 mph 30 % 0.0 in
14:26 15.8 °F -1.8 °F 1015.8 in West 11.1 mph 11.1 mph 30 % 0.0 in
14:31 15.8 °F -1.8 °F 1015.8 in WNW 13.0 mph 13.0 mph 30 % 0.0 in
14:36 15.7 °F -2.8 °F 1014.8 in West 22.2 mph 22.2 mph 28 % 0.0 in
14:41 15.6 °F -2.9 °F 1014.8 in WSW 13.0 mph 13.0 mph 28 % 0.0 in
14:46 15.7 °F -2.8 °F 1014.8 in West 9.5 mph 9.5 mph 28 % 0.0 in
14:51 15.8 °F -2.2 °F 1014.8 in NNW 7.4 mph 7.4 mph 29 % 0.0 in
14:56 15.7 °F -2.8 °F 1014.8 in West 14.8 mph 14.8 mph 28 % 0.0 in
15:01 15.7 °F -3.3 °F 1014.8 in South 16.7 mph 16.7 mph 27 % 0.0 in
15:06 15.6 °F -3.3 °F 1014.8 in WSW 9.3 mph 9.3 mph 27 % 0.0 in
15:11 15.6 °F -3.3 °F 1014.8 in SW 9.7 mph 9.7 mph 27 % 0.0 in
15:16 15.6 °F -3.3 °F 1014.8 in SSE 7.4 mph 7.4 mph 27 % 0.0 in
15:21 15.6 °F -3.9 °F 1014.8 in NW 9.3 mph 9.3 mph 26 % 0.0 in
15:26 15.5 °F -3.9 °F 1014.8 in SW 14.8 mph 14.8 mph 26 % 0.0 in
15:31 15.4 °F -4.1 °F 1014.8 in WNW 5.0 mph 5.0 mph 26 % 0.0 in
15:36 15.3 °F -4.1 °F 1014.8 in East 9.3 mph 9.3 mph 26 % 0.0 in
15:41 15.5 °F -3.4 °F 1014.8 in West 7.4 mph 7.4 mph 27 % 0.0 in
15:46 15.4 °F -4.1 °F 1014.8 in NW 14.8 mph 14.8 mph 26 % 0.0 in
15:51 15.5 °F -3.4 °F 1014.8 in WNW 9.7 mph 9.7 mph 27 % 0.0 in
15:56 15.4 °F -4.1 °F 1014.8 in SSW 13.0 mph 13.0 mph 26 % 0.0 in
16:01 15.3 °F -4.7 °F 1014.8 in WNW 9.3 mph 9.3 mph 25 % 0.0 in
16:06 15.3 °F -4.1 °F 1014.8 in WNW 14.0 mph 14.0 mph 26 % 0.0 in
16:11 15.0 °F -4.9 °F 1014.8 in SW 9.3 mph 9.3 mph 25 % 0.0 in
16:16 14.9 °F -5.5 °F 1014.8 in West 11.4 mph 11.4 mph 24 % 0.0 in
16:22 14.7 °F -6.3 °F 1013.8 in West 11.1 mph 11.1 mph 23 % 0.0 in
16:27 14.6 °F -5.8 °F 1013.8 in West 9.3 mph 9.3 mph 24 % 0.0 in
16:32 14.5 °F -5.9 °F 1013.8 in West 18.5 mph 18.5 mph 24 % 0.0 in
16:37 14.4 °F -5.9 °F 1013.8 in WNW 13.0 mph 13.0 mph 24 % 0.0 in
16:42 14.3 °F -6.1 °F 1013.8 in SW 9.3 mph 9.3 mph 24 % 0.0 in
16:47 14.2 °F -6.7 °F 1013.8 in South 7.4 mph 7.4 mph 23 % 0.0 in
16:52 14.1 °F -6.8 °F 1013.8 in WSW 14.8 mph 14.8 mph 23 % 0.0 in
16:57 14.0 °F -6.8 °F 1013.8 in West 9.5 mph 9.5 mph 23 % 0.0 in
17:02 13.9 °F -6.9 °F 1013.8 in WNW 14.8 mph 14.8 mph 23 % 0.0 in
17:07 13.7 °F -7.7 °F 1014.8 in WNW 18.5 mph 18.5 mph 22 % 0.0 in
17:12 13.6 °F -7.8 °F 1014.8 in West 16.7 mph 16.7 mph 22 % 0.0 in
17:17 13.3 °F -8.0 °F 1014.8 in NW 7.4 mph 7.4 mph 22 % 0.0 in
17:22 13.1 °F -8.2 °F 1013.8 in SW 14.8 mph 14.8 mph 22 % 0.0 in
17:27 13.0 °F -8.3 °F 1013.8 in WSW 7.4 mph 7.4 mph 22 % 0.0 in
17:32 12.8 °F -8.4 °F 1013.8 in West 7.4 mph 7.4 mph 22 % 0.0 in
17:37 12.7 °F -8.5 °F 1014.8 in WSW 13.0 mph 13.0 mph 22 % 0.0 in
17:42 12.6 °F -8.6 °F 1014.8 in ESE 11.1 mph 11.1 mph 22 % 0.0 in
17:47 12.5 °F -8.7 °F 1014.8 in West 9.7 mph 9.7 mph 22 % 0.0 in
17:52 12.4 °F -8.8 °F 1014.8 in WSW 14.8 mph 14.8 mph 22 % 0.0 in
17:57 12.4 °F -8.8 °F 1014.8 in SSW 7.4 mph 7.4 mph 22 % 0.0 in
18:02 12.2 °F -8.9 °F 1014.8 in West 11.1 mph 11.1 mph 22 % 0.0 in
18:07 12.1 °F -9.0 °F 1014.8 in WSW 14.0 mph 14.0 mph 22 % 0.0 in
18:12 12.0 °F -9.1 °F 1014.8 in SW 11.1 mph 11.1 mph 22 % 0.0 in
18:15 7.0 °F -9.8 °F 1016.8 in WSW 1.6 mph 3.2 mph 29 % 0.0 in
18:17 11.9 °F -9.2 °F 1014.8 in West 7.4 mph 7.4 mph 22 % 0.0 in
18:22 11.8 °F -9.3 °F 1014.8 in ENE 7.4 mph 7.4 mph 22 % 0.0 in
18:23 11.8 °F -9.3 °F 1014.8 in WSW 5.6 mph 5.6 mph 22 % 0.0 in
18:25 6.8 °F -10.1 °F 1015.8 in West 1.6 mph 3.2 mph 29 % 0.0 in
18:28 11.7 °F -9.3 °F 1014.8 in West 10.3 mph 10.3 mph 22 % 0.0 in
18:33 11.6 °F -9.4 °F 1014.8 in NW 9.3 mph 9.3 mph 22 % 0.0 in
18:35 6.7 °F -10.1 °F 1015.8 in WNW 1.6 mph 1.6 mph 29 % 0.0 in
18:38 11.6 °F -9.4 °F 1014.8 in North 4.7 mph 4.7 mph 22 % 0.0 in
18:43 11.5 °F -9.5 °F 1014.8 in West 5.6 mph 5.6 mph 22 % 0.0 in
18:44 11.4 °F -9.6 °F 1014.8 in West 5.6 mph 5.8 mph 22 % 0.0 in
18:45 6.6 °F -9.8 °F 1016.8 in West 3.2 mph 3.2 mph 30 % 0.0 in
18:49 11.3 °F -9.1 °F 1014.8 in NNW 5.6 mph 5.6 mph 23 % 0.0 in
18:54 11.2 °F -9.2 °F 1014.8 in West 7.4 mph 7.4 mph 23 % 0.0 in
18:55 6.6 °F -9.8 °F 1016.8 in Calm   3.2 mph 30 % 0.0 in
18:59 11.1 °F -9.3 °F 1014.8 in SW 7.4 mph 7.4 mph 23 % 0.0 in
19:04 10.9 °F -9.4 °F 1014.8 in WSW 7.4 mph 7.4 mph 23 % 0.0 in
19:05 6.5 °F -9.9 °F 1016.8 in West 1.6 mph 3.2 mph 30 % 0.0 in
19:09 10.9 °F -9.4 °F 1014.8 in West 5.0 mph 5.0 mph 23 % 0.0 in
19:14 10.7 °F -9.6 °F 1014.8 in NE 3.7 mph 3.7 mph 23 % 0.0 in
19:15 6.3 °F -10.1 °F 1016.8 in WSW 3.2 mph 4.8 mph 30 % 0.0 in
19:19 10.8 °F -9.6 °F 1014.8 in West 5.6 mph 5.6 mph 23 % 0.0 in
19:24 10.7 °F -9.6 °F 1014.8 in NNE 4.2 mph 4.2 mph 23 % 0.0 in
19:25 6.1 °F -10.2 °F 1016.8 in Calm   3.2 mph 30 % 0.0 in
19:29 10.6 °F -9.7 °F 1014.8 in SW 7.4 mph 7.4 mph 23 % 0.0 in
19:34 10.7 °F -9.6 °F 1014.8 in ESE 11.1 mph 11.1 mph 23 % 0.0 in
19:35 6.1 °F -10.2 °F 1016.8 in West 3.2 mph 3.2 mph 30 % 0.0 in
19:39 10.6 °F -9.7 °F 1015.8 in WNW 7.4 mph 7.4 mph 23 % 0.0 in
19:44 10.6 °F -9.7 °F 1015.8 in NW 5.6 mph 5.6 mph 23 % 0.0 in
19:45 5.9 °F -10.0 °F 1016.8 in WSW 1.6 mph 4.8 mph 31 % 0.0 in
19:49 10.5 °F -9.3 °F 1015.8 in NW 7.4 mph 7.4 mph 24 % 0.0 in
19:54 10.3 °F -9.4 °F 1015.8 in WSW 5.6 mph 5.6 mph 24 % 0.0 in
19:55 5.4 °F -10.4 °F 1016.8 in WSW 1.6 mph 4.8 mph 31 % 0.0 in
19:59 10.2 °F -9.5 °F 1015.8 in WSW 5.6 mph 5.6 mph 24 % 0.0 in
20:04 9.9 °F -9.8 °F 1015.8 in WNW 3.9 mph 3.9 mph 24 % 0.0 in
20:05 9.9 °F -9.8 °F 1015.8 in WNW 3.7 mph 3.7 mph 24 % 0.0 in
20:10 9.8 °F -9.8 °F 1015.8 in West 4.2 mph 4.2 mph 24 % 0.0 in
20:15 9.7 °F -9.9 °F 1015.8 in West 5.6 mph 5.6 mph 24 % 0.0 in
20:20 9.6 °F -10.0 °F 1015.8 in WSW 5.6 mph 5.6 mph 24 % 0.0 in
20:25 9.4 °F -9.7 °F 1015.8 in SW 7.4 mph 7.4 mph 25 % 0.0 in
20:30 9.2 °F -9.8 °F 1015.8 in SSW 1.9 mph 2.3 mph 25 % 0.0 in
20:35 9.1 °F -9.9 °F 1015.8 in SSW 3.7 mph 3.7 mph 25 % 0.0 in
20:40 9.0 °F -10.0 °F 1015.8 in SE 2.6 mph   25 % 0.0 in
20:45 8.9 °F -10.1 °F 1015.8 in NE 5.6 mph 5.6 mph 25 % 0.0 in
20:50 9.0 °F -10.0 °F 1015.8 in ENE 5.0 mph 5.0 mph 25 % 0.0 in
20:55 9.0 °F -10.0 °F 1015.8 in SW 3.7 mph 3.7 mph 25 % 0.0 in
21:00 8.8 °F -10.2 °F 1015.8 in East 3.7 mph 3.7 mph 25 % 0.0 in
21:05 8.8 °F -10.2 °F 1015.8 in ENE 3.7 mph 3.7 mph 25 % 0.0 in
21:10 8.7 °F -10.3 °F 1015.8 in NW 9.3 mph 9.3 mph 25 % 0.0 in
21:15 8.7 °F -10.3 °F 1015.8 in ENE 3.7 mph 3.7 mph 25 % 0.0 in
21:20 8.6 °F -10.3 °F 1015.8 in ENE 2.3 mph 2.3 mph 25 % 0.0 in
21:25 8.6 °F -10.3 °F 1015.8 in ENE 3.7 mph   25 % 0.0 in
21:26 8.6 °F -10.3 °F 1015.8 in ESE 4.2 mph   25 % 0.0 in
21:31 8.5 °F -10.4 °F 1015.8 in ENE 3.9 mph 3.9 mph 25 % 0.0 in
21:35 5.0 °F -10.3 °F 1017.8 in Calm   1.6 mph 32 % 0.0 in
21:36 8.3 °F -10.1 °F 1016.8 in Calm     26 % 0.0 in
21:41 8.2 °F -10.2 °F 1016.8 in WSW 1.9 mph 1.9 mph 26 % 0.0 in
21:45 4.9 °F -10.4 °F 1016.8 in NW 3.2 mph 3.2 mph 32 % 0.0 in
21:46 8.2 °F -10.2 °F 1016.8 in SW 3.7 mph 3.7 mph 26 % 0.0 in
21:51 8.1 °F -10.3 °F 1015.8 in SW 3.7 mph 3.7 mph 26 % 0.0 in
21:55 4.8 °F -10.6 °F 1017.8 in North 1.6 mph 3.2 mph 32 % 0.0 in
21:56 7.9 °F -10.4 °F 1015.8 in SSW 3.7 mph 3.7 mph 26 % 0.0 in
22:01 7.8 °F -10.6 °F 1015.8 in SW 3.7 mph 3.7 mph 26 % 0.0 in
22:05 4.8 °F -10.6 °F 1017.8 in North 1.6 mph 3.2 mph 32 % 0.0 in
22:06 7.8 °F -10.1 °F 1016.8 in WNW 3.7 mph 3.7 mph 27 % 0.0 in
22:11 7.8 °F -10.1 °F 1016.8 in South 3.7 mph 3.7 mph 27 % 0.0 in
22:15 4.5 °F -10.8 °F 1016.8 in NNE 3.2 mph 4.8 mph 32 % 0.0 in
22:16 7.7 °F -10.2 °F 1016.8 in West 1.9 mph   27 % 0.0 in
22:21 7.6 °F -10.2 °F 1016.8 in WSW 2.3 mph 2.3 mph 27 % 0.0 in
22:25 4.2 °F -10.7 °F 1017.8 in Calm   1.6 mph 33 % 0.0 in
22:26 7.4 °F -10.4 °F 1016.8 in West 4.2 mph 4.2 mph 27 % 0.0 in
22:31 7.3 °F -10.5 °F 1016.8 in WSW 4.2 mph 4.2 mph 27 % 0.0 in
22:35 4.1 °F -10.8 °F 1017.8 in Calm     33 % 0.0 in
22:36 7.4 °F -10.4 °F 1016.8 in West 3.9 mph 3.9 mph 27 % 0.0 in
22:41 7.5 °F -10.3 °F 1016.8 in SSW 3.7 mph 3.7 mph 27 % 0.0 in
22:45 4.1 °F -10.8 °F 1017.8 in NW 1.6 mph 3.2 mph 33 % 0.0 in
22:46 7.5 °F -10.3 °F 1016.8 in West 3.9 mph 3.9 mph 27 % 0.0 in
22:51 7.6 °F -9.8 °F 1015.8 in WSW 5.6 mph 5.6 mph 28 % 0.0 in
22:55 4.0 °F -10.5 °F 1018.8 in Calm   3.2 mph 34 % 0.0 in
22:56 7.3 °F -10.1 °F 1015.8 in SSE 5.0 mph 5.0 mph 28 % 0.0 in
23:01 7.5 °F -9.9 °F 1015.8 in WNW 5.6 mph 5.6 mph 28 % 0.0 in
23:05 3.7 °F -10.7 °F 1018.8 in West 1.6 mph 1.6 mph 34 % 0.0 in
23:06 7.5 °F -9.9 °F 1015.8 in Calm     28 % 0.0 in
23:11 7.2 °F -10.1 °F 1015.8 in WSW 5.6 mph 5.6 mph 28 % 0.0 in
23:15 3.6 °F -10.8 °F 1017.8 in West 1.6 mph 4.8 mph 34 % 0.0 in
23:16 6.8 °F -10.5 °F 1015.8 in South 1.9 mph 1.9 mph 28 % 0.0 in
23:18 6.9 °F -10.4 °F 1015.8 in South 1.9 mph 1.9 mph 28 % 0.0 in
23:23 7.0 °F -10.3 °F 1015.8 in WSW 3.7 mph 4.2 mph 28 % 0.0 in
23:25 3.7 °F -10.7 °F 1017.8 in WNW 1.6 mph 3.2 mph 34 % 0.0 in
23:28 6.9 °F -10.4 °F 1015.8 in West 7.4 mph 7.4 mph 28 % 0.0 in
23:33 7.0 °F -9.8 °F 1015.8 in WSW 5.3 mph 5.3 mph 29 % 0.0 in
23:35 3.8 °F -10.7 °F 1017.8 in NNW 1.6 mph 1.6 mph 34 % 0.0 in
23:38 6.9 °F -9.9 °F 1015.8 in West 3.7 mph 3.7 mph 29 % 0.0 in
23:43 6.9 °F -9.9 °F 1015.8 in SE 1.9 mph 1.9 mph 29 % 0.0 in
23:45 3.7 °F -10.7 °F 1016.8 in NW 1.6 mph 3.2 mph 34 % 0.0 in
23:48 7.0 °F -9.8 °F 1015.8 in WNW 4.2 mph 4.2 mph 29 % 0.0 in
23:53 7.0 °F -9.8 °F 1015.8 in SW 1.9 mph 1.9 mph 29 % 0.0 in
23:55 3.6 °F -10.4 °F 1017.8 in WNW 1.6 mph 1.6 mph 35 % 0.0 in
23:58 7.0 °F -9.8 °F 1015.8 in WNW 3.7 mph 3.7 mph 29 % 0.0 in
Meteo Sesrovires
Elogis d' Weather Underground - 3.75 mb

Guio original per  Jim McMurry - jmcmurry@mwt.net Adaptat per a la plantilla per  Wim van der Kuil - Leuven-Template.eu

Trobareu la nostra informacio del temps tambe a:

Weather Underground

AWEKAS